createdAt,value
2022-12-13T00:01:17.656Z,21.02
2022-12-13T00:03:45.201Z,21.25
2022-12-13T00:06:13.011Z,19.48
2022-12-13T00:08:39.865Z,19.60
2022-12-13T00:11:09.009Z,21.33
2022-12-13T00:16:06.170Z,20.45
2022-12-13T00:18:33.751Z,20.70
2022-12-13T00:21:04.208Z,19.20
2022-12-13T00:23:30.810Z,21.17
2022-12-13T00:26:10.235Z,22.30
2022-12-13T00:28:37.634Z,23.33
2022-12-13T00:31:20.062Z,20.83
2022-12-13T00:33:51.109Z,21.45
2022-12-13T00:36:18.694Z,21.45
2022-12-13T00:38:45.677Z,22.90
2022-12-13T00:41:16.434Z,21.33
2022-12-13T00:43:43.498Z,22.08
2022-12-13T00:46:18.991Z,21.48
2022-12-13T00:48:50.996Z,21.73
2022-12-13T00:51:18.958Z,20.83
2022-12-13T00:53:45.662Z,21.17
2022-12-13T00:56:14.472Z,20.98
2022-12-13T00:58:43.367Z,20.40
2022-12-13T01:01:15.803Z,19.50
2022-12-13T01:03:43.483Z,20.13
2022-12-13T01:06:19.044Z,21.27
2022-12-13T01:08:49.549Z,20.55
2022-12-13T01:11:18.198Z,20.58
2022-12-13T01:13:45.932Z,19.88
2022-12-13T01:16:13.573Z,19.23
2022-12-13T01:18:41.307Z,17.73
2022-12-13T01:21:12.029Z,19.13
2022-12-13T01:23:38.968Z,18.60
2022-12-13T01:26:07.511Z,15.77
2022-12-13T01:28:34.184Z,18.40
2022-12-13T01:31:05.820Z,16.85
2022-12-13T01:33:33.403Z,16.55
2022-12-13T01:36:06.890Z,17.17
2022-12-13T01:38:37.794Z,17.17
2022-12-13T01:41:16.771Z,15.55
2022-12-13T01:43:49.129Z,16.05
2022-12-13T01:46:18.175Z,15.57
2022-12-13T01:48:50.934Z,16.60
2022-12-13T01:51:21.482Z,16.10
2022-12-13T01:53:50.227Z,15.40
2022-12-13T01:56:31.687Z,16.58
2022-12-13T01:59:00.379Z,15.98
2022-12-13T02:01:28.716Z,15.43
2022-12-13T02:03:55.648Z,15.85
2022-12-13T02:06:39.884Z,17.42
2022-12-13T02:09:08.255Z,16.58
2022-12-13T02:11:37.672Z,16.80
2022-12-13T02:14:05.550Z,17.63
2022-12-13T02:16:50.614Z,15.48
2022-12-13T02:19:49.756Z,16.25
2022-12-13T02:22:34.688Z,14.27
2022-12-13T02:25:16.924Z,16.30
2022-12-13T02:28:31.872Z,17.02
2022-12-13T02:31:32.431Z,16.10
2022-12-13T02:34:09.939Z,14.75
2022-12-13T02:37:18.071Z,16.23
2022-12-13T02:39:56.746Z,17.23
2022-12-13T02:42:33.319Z,17.37
2022-12-13T02:45:17.168Z,15.48
2022-12-13T02:47:49.393Z,16.08
2022-12-13T02:50:16.363Z,15.43
2022-12-13T02:52:46.627Z,16.65
2022-12-13T02:55:15.570Z,16.73
2022-12-13T03:00:15.798Z,18.23
2022-12-13T03:02:48.456Z,16.80
2022-12-13T03:05:44.815Z,17.15
2022-12-13T03:08:29.637Z,17.13
2022-12-13T03:11:13.118Z,19.00
2022-12-13T03:13:56.081Z,17.63
2022-12-13T03:16:43.872Z,17.90
2022-12-13T03:19:12.804Z,17.10
2022-12-13T03:21:45.710Z,17.73
2022-12-13T03:24:17.153Z,17.23
2022-12-13T03:26:43.983Z,17.85
2022-12-13T03:29:10.965Z,17.55
2022-12-13T03:31:37.650Z,17.27
2022-12-13T03:34:04.396Z,17.95
2022-12-13T03:36:31.244Z,17.92
2022-12-13T03:39:08.912Z,17.92
2022-12-13T03:41:39.155Z,16.70
2022-12-13T03:44:07.962Z,17.95
2022-12-13T03:46:36.195Z,16.25
2022-12-13T03:49:02.929Z,15.10
2022-12-13T03:51:29.566Z,16.15
2022-12-13T03:53:56.264Z,25.80
2022-12-13T03:56:23.084Z,20.58
2022-12-13T03:58:50.202Z,17.73
2022-12-13T04:01:19.159Z,17.40
2022-12-13T04:06:22.439Z,14.05
2022-12-13T04:08:52.258Z,16.00
2022-12-13T04:11:42.705Z,15.02
2022-12-13T04:14:11.522Z,15.00
2022-12-13T04:16:38.269Z,14.03
2022-12-13T04:19:05.004Z,14.45
2022-12-13T04:21:31.721Z,13.98
2022-12-13T04:24:00.930Z,14.75
2022-12-13T04:26:28.561Z,14.95
2022-12-13T04:28:55.286Z,14.20
2022-12-13T04:31:22.227Z,13.27
2022-12-13T04:33:49.004Z,15.75
2022-12-13T04:36:30.936Z,16.38
2022-12-13T04:39:02.420Z,14.90
2022-12-13T04:41:34.526Z,14.88
2022-12-13T04:44:02.129Z,14.93
2022-12-13T04:46:31.797Z,14.20
2022-12-13T04:48:58.624Z,14.50
2022-12-13T04:51:25.688Z,14.18
2022-12-13T04:53:52.656Z,14.45
2022-12-13T04:56:19.992Z,15.38
2022-12-13T04:58:46.949Z,14.82
2022-12-13T05:01:13.766Z,18.13
2022-12-13T05:03:40.689Z,15.25
2022-12-13T05:06:26.737Z,16.55
2022-12-13T05:08:55.078Z,16.27
2022-12-13T05:11:28.075Z,16.85
2022-12-13T05:14:02.811Z,16.08
2022-12-13T05:16:29.603Z,16.02
2022-12-13T05:18:56.391Z,18.55
2022-12-13T05:21:23.027Z,16.42
2022-12-13T05:23:49.797Z,14.45
2022-12-13T05:26:17.350Z,16.23
2022-12-13T05:28:44.398Z,17.27
2022-12-13T05:31:22.983Z,17.63
2022-12-13T05:33:54.988Z,16.95
2022-12-13T05:36:29.244Z,16.45
2022-12-13T05:38:56.147Z,16.17
2022-12-13T05:41:27.986Z,15.82
2022-12-13T05:43:55.088Z,16.63
2022-12-13T05:46:21.740Z,15.93
2022-12-13T05:48:48.546Z,15.52
2022-12-13T05:51:17.601Z,17.60
2022-12-13T05:56:22.885Z,16.63
2022-12-13T05:58:53.355Z,16.88
2022-12-13T06:01:23.703Z,15.73
2022-12-13T06:03:50.536Z,16.35
2022-12-13T06:06:21.214Z,15.80
2022-12-13T06:08:51.038Z,16.10
2022-12-13T06:11:31.261Z,16.60
2022-12-13T06:14:00.921Z,15.73
2022-12-13T06:16:28.253Z,15.63
2022-12-13T06:21:40.683Z,15.52
2022-12-13T06:24:10.704Z,17.17
2022-12-13T06:40:01.006Z,20.63
2022-12-13T06:42:31.829Z,20.05
2022-12-13T06:44:58.448Z,18.30
2022-12-13T06:47:30.968Z,19.30
2022-12-13T06:49:59.136Z,19.98
2022-12-13T06:52:32.585Z,20.60
2022-12-13T06:55:00.057Z,20.40
2022-12-13T06:57:26.758Z,19.13
2022-12-13T06:59:53.434Z,19.75
2022-12-13T07:02:24.631Z,19.33
2022-12-13T07:04:52.091Z,19.13
2022-12-13T07:07:18.719Z,19.05
2022-12-13T07:09:45.396Z,18.20
2022-12-13T07:12:14.447Z,20.38
2022-12-13T07:25:28.692Z,16.80
2022-12-13T07:28:07.793Z,19.02
2022-12-13T07:30:40.594Z,21.58
2022-12-13T07:33:09.390Z,21.92
2022-12-13T07:35:36.907Z,21.08
2022-12-13T07:38:04.650Z,21.50
2022-12-13T07:40:33.756Z,21.50
2022-12-13T07:43:00.465Z,22.70
2022-12-13T07:45:27.334Z,22.15
2022-12-13T07:47:53.986Z,26.48
2022-12-13T07:53:08.761Z,49.97
2022-12-13T07:55:36.726Z,22.38
2022-12-13T07:58:09.391Z,20.98
2022-12-13T08:00:37.559Z,21.90
2022-12-13T08:03:05.768Z,19.53
2022-12-13T08:05:38.337Z,21.70
2022-12-13T08:08:07.456Z,21.17
2022-12-13T08:10:34.154Z,20.75
2022-12-13T08:13:03.921Z,22.00
2022-12-13T08:15:30.653Z,22.05
2022-12-13T08:17:58.234Z,21.80
2022-12-13T08:20:24.904Z,23.27
2022-12-13T08:23:01.651Z,23.25
2022-12-13T08:25:30.274Z,23.02
2022-12-13T08:28:01.698Z,23.00
2022-12-13T08:30:30.530Z,22.40
2022-12-13T08:32:57.688Z,22.70
2022-12-13T08:35:32.077Z,22.88
2022-12-13T08:38:01.003Z,21.15
2022-12-13T08:40:27.752Z,22.83
2022-12-13T08:42:55.578Z,22.80
2022-12-13T08:45:24.043Z,24.60
2022-12-13T08:47:50.634Z,25.85
2022-12-13T08:50:17.353Z,24.42
2022-12-13T08:52:45.022Z,24.58
2022-12-13T08:55:13.300Z,23.20
2022-12-13T08:57:41.325Z,25.43
2022-12-13T09:00:11.598Z,26.33
2022-12-13T09:02:38.960Z,43.40
2022-12-13T09:05:07.804Z,23.80
2022-12-13T09:07:40.990Z,24.90
2022-12-13T09:10:26.897Z,25.27
2022-12-13T09:13:01.282Z,32.30
2022-12-13T09:15:34.452Z,23.83
2022-12-13T09:18:04.147Z,23.77
2022-12-13T09:20:32.343Z,24.05
2022-12-13T09:23:13.686Z,20.92
2022-12-13T09:26:05.839Z,23.90
2022-12-13T09:28:34.967Z,22.05
2022-12-13T09:31:01.831Z,21.60
2022-12-13T09:33:30.621Z,33.90
2022-12-13T09:35:57.865Z,22.02
2022-12-13T09:38:24.453Z,24.60
2022-12-13T09:40:58.884Z,23.92
2022-12-13T09:43:32.450Z,23.58
2022-12-13T09:46:13.364Z,20.38
2022-12-13T09:49:01.093Z,24.90
2022-12-13T09:51:43.831Z,23.90
2022-12-13T09:54:20.651Z,22.85
2022-12-13T09:56:51.101Z,24.08
2022-12-13T09:59:28.910Z,22.58
2022-12-13T10:01:57.471Z,21.48
2022-12-13T10:04:24.164Z,23.70
2022-12-13T10:06:54.704Z,22.65
2022-12-13T10:09:21.690Z,22.23
2022-12-13T10:11:51.223Z,21.40
2022-12-13T10:14:37.332Z,20.60
2022-12-13T10:17:08.473Z,21.48
2022-12-13T10:19:41.647Z,21.02
2022-12-13T10:22:13.449Z,21.63
2022-12-13T10:24:56.558Z,22.00
2022-12-13T10:27:34.773Z,19.92
2022-12-13T10:30:12.529Z,23.27
2022-12-13T10:32:53.927Z,24.02
2022-12-13T10:35:20.804Z,21.08
2022-12-13T10:37:47.558Z,22.17
2022-12-13T10:40:33.908Z,21.77
2022-12-13T10:43:21.157Z,20.50
2022-12-13T10:45:54.201Z,19.15
2022-12-13T10:48:27.065Z,19.92
2022-12-13T10:51:02.931Z,21.58
2022-12-13T10:53:34.223Z,19.83
2022-12-13T10:56:02.648Z,20.77
2022-12-13T10:58:41.644Z,20.90
2022-12-13T11:01:11.973Z,19.98
2022-12-13T11:03:38.866Z,20.30
2022-12-13T11:06:15.432Z,18.77
2022-12-13T11:08:42.109Z,19.17
2022-12-13T11:11:10.049Z,18.38
2022-12-13T11:13:47.163Z,20.75
2022-12-13T11:16:34.125Z,19.52
2022-12-13T11:19:05.945Z,21.20
2022-12-13T11:21:36.769Z,19.23
2022-12-13T11:24:08.542Z,19.92
2022-12-13T11:26:38.417Z,17.40
2022-12-13T11:29:42.930Z,16.77
2022-12-13T11:32:22.547Z,18.73
2022-12-13T11:34:58.826Z,18.83
2022-12-13T11:37:31.356Z,20.63
2022-12-13T11:40:05.261Z,22.05
2022-12-13T11:42:55.899Z,18.60
2022-12-13T11:45:29.744Z,18.50
2022-12-13T11:48:18.000Z,18.92
2022-12-13T11:50:48.541Z,18.43
2022-12-13T11:53:41.678Z,19.33
2022-12-13T11:56:23.914Z,19.52
2022-12-13T11:59:19.083Z,20.50
2022-12-13T12:02:16.733Z,18.98
2022-12-13T12:05:00.449Z,19.67
2022-12-13T12:11:44.760Z,17.17
2022-12-13T12:14:36.271Z,17.85
2022-12-13T12:17:04.175Z,16.80
2022-12-13T12:19:44.020Z,16.50
2022-12-13T12:22:28.736Z,15.88
2022-12-13T12:25:10.656Z,16.58
2022-12-13T12:28:02.050Z,16.83
2022-12-13T12:30:38.055Z,17.70
2022-12-13T12:33:33.767Z,17.17
2022-12-13T12:36:06.317Z,16.98
2022-12-13T12:38:54.155Z,18.63
2022-12-13T12:41:20.705Z,19.13
2022-12-13T12:44:09.647Z,18.30
2022-12-13T12:47:01.472Z,18.25
2022-12-13T12:49:47.552Z,17.48
2022-12-13T12:52:15.009Z,17.70
2022-12-13T12:55:18.818Z,16.55
2022-12-13T12:57:57.455Z,18.13
2022-12-13T13:00:36.055Z,17.27
2022-12-13T13:03:24.273Z,18.35
2022-12-13T13:06:03.067Z,26.00
2022-12-13T13:08:37.603Z,25.08
2022-12-13T13:11:06.407Z,26.17
2022-12-13T13:14:01.771Z,25.35
2022-12-13T13:16:39.561Z,23.70
2022-12-13T13:19:11.889Z,23.60
2022-12-13T13:21:47.364Z,23.48
2022-12-13T13:24:19.915Z,21.83
2022-12-13T13:26:52.447Z,22.65
2022-12-13T13:29:26.572Z,22.58
2022-12-13T13:32:01.149Z,21.35
2022-12-13T13:34:43.389Z,21.40
2022-12-13T13:37:23.072Z,21.15
2022-12-13T13:39:52.723Z,21.02
2022-12-13T13:45:22.883Z,21.58
2022-12-13T13:47:59.601Z,21.25
2022-12-13T13:51:01.062Z,21.27
2022-12-13T13:53:33.532Z,22.45
2022-12-13T13:56:10.280Z,20.88
2022-12-13T13:58:42.822Z,21.83
2022-12-13T14:01:12.515Z,22.17
2022-12-13T14:04:04.027Z,22.58
2022-12-13T14:07:01.306Z,21.85
2022-12-13T14:10:03.921Z,22.30
2022-12-13T14:13:20.888Z,19.55
2022-12-13T14:15:53.272Z,20.73
2022-12-13T14:18:58.217Z,20.60
2022-12-13T14:21:40.120Z,19.50
2022-12-13T14:24:16.550Z,16.30
2022-12-13T14:27:13.492Z,14.00
2022-12-13T14:29:48.225Z,13.73
2022-12-13T14:32:28.562Z,13.48
2022-12-13T14:34:59.564Z,15.30
2022-12-13T14:38:05.061Z,16.33
2022-12-13T14:40:48.160Z,16.45
2022-12-13T14:43:32.057Z,16.50
2022-12-13T14:46:01.107Z,15.60
2022-12-13T14:48:37.771Z,16.95
2022-12-13T14:51:04.821Z,23.70
2022-12-13T14:53:37.824Z,21.17
2022-12-13T14:56:04.528Z,20.98
2022-12-13T14:58:31.335Z,19.38
2022-12-13T15:00:58.069Z,19.35
2022-12-13T15:03:27.578Z,17.48
2022-12-13T15:06:00.288Z,18.58
2022-12-13T15:08:27.861Z,20.35
2022-12-13T15:10:57.827Z,17.67
2022-12-13T15:13:36.251Z,18.27
2022-12-13T15:16:28.311Z,18.90
2022-12-13T15:19:30.855Z,18.75
2022-12-13T15:22:05.428Z,19.50
2022-12-13T15:24:34.703Z,19.00
2022-12-13T15:27:02.678Z,21.23
2022-12-13T15:29:35.579Z,19.95
2022-12-13T15:32:03.585Z,19.25
2022-12-13T15:34:31.106Z,20.58
2022-12-13T15:37:28.495Z,17.48
2022-12-13T15:40:01.394Z,18.42
2022-12-13T15:42:35.776Z,18.98
2022-12-13T15:45:33.345Z,20.88
2022-12-13T15:48:04.601Z,19.27
2022-12-13T15:50:38.508Z,22.08
2022-12-13T15:53:19.983Z,20.60
2022-12-13T15:55:46.848Z,22.33
2022-12-13T15:58:25.668Z,21.50
2022-12-13T16:00:52.676Z,21.10
2022-12-13T16:03:24.652Z,21.98
2022-12-13T16:05:55.152Z,22.35
2022-12-13T16:08:35.648Z,21.40
2022-12-13T16:11:02.676Z,20.50
2022-12-13T16:13:36.196Z,19.92
2022-12-13T16:16:27.975Z,19.83
2022-12-13T16:19:00.228Z,19.30
2022-12-13T16:21:28.298Z,21.85
2022-12-13T16:23:54.956Z,20.40
2022-12-13T16:26:29.611Z,24.58
2022-12-13T16:28:59.445Z,23.30
2022-12-13T16:31:35.805Z,21.65
2022-12-13T16:34:04.015Z,19.33
2022-12-13T16:36:30.827Z,21.20
2022-12-13T16:38:57.703Z,21.15
2022-12-13T16:41:25.064Z,18.92
2022-12-13T16:43:56.563Z,19.77
2022-12-13T16:47:16.974Z,18.98
2022-12-13T16:49:26.222Z,19.65
2022-12-13T16:51:53.790Z,21.67
2022-12-13T16:54:21.931Z,23.73
2022-12-13T16:56:49.457Z,21.27
2022-12-13T16:59:18.633Z,22.45
2022-12-13T17:01:46.132Z,22.10
2022-12-13T17:04:19.672Z,23.02
2022-12-13T17:06:48.482Z,25.23
2022-12-13T17:09:15.108Z,31.15
2022-12-13T17:11:41.762Z,29.15
2022-12-13T17:14:08.529Z,33.05
2022-12-13T17:16:35.273Z,30.60
2022-12-13T17:19:02.244Z,30.83
2022-12-13T17:21:29.907Z,40.00
2022-12-13T17:24:01.700Z,40.88
2022-12-13T17:26:29.211Z,35.85
2022-12-13T17:28:56.212Z,33.10
2022-12-13T17:31:22.952Z,32.88
2022-12-13T17:33:49.658Z,32.58
2022-12-13T17:36:16.591Z,28.58
2022-12-13T17:38:48.026Z,30.23
2022-12-13T17:41:18.295Z,28.45
2022-12-13T17:43:45.155Z,29.85
2022-12-13T17:46:14.719Z,32.05
2022-12-13T17:48:41.970Z,30.50
2022-12-13T17:51:11.090Z,30.42
2022-12-13T17:53:40.399Z,29.15
2022-12-13T17:56:08.529Z,33.40
2022-12-13T17:58:35.636Z,31.27
2022-12-13T18:01:24.147Z,31.42
2022-12-13T18:03:55.721Z,30.17
2022-12-13T18:06:24.362Z,30.80
2022-12-13T18:08:50.994Z,30.83
2022-12-13T18:11:35.334Z,30.38
2022-12-13T18:14:03.833Z,30.63
2022-12-13T18:16:37.080Z,29.30
2022-12-13T18:19:07.784Z,28.83
2022-12-13T18:21:35.640Z,30.92
2022-12-13T18:24:02.789Z,30.58
2022-12-13T18:26:29.602Z,31.88
2022-12-13T18:28:56.289Z,28.80
2022-12-13T18:31:24.847Z,30.40
2022-12-13T18:33:53.536Z,31.50
2022-12-13T18:36:22.905Z,29.42
2022-12-13T18:38:50.241Z,29.92
2022-12-13T18:41:20.256Z,31.15
2022-12-13T18:43:47.692Z,34.08
2022-12-13T18:46:15.971Z,33.15
2022-12-13T18:48:42.832Z,23.47
2022-12-13T18:51:10.547Z,30.60
2022-12-13T18:53:38.517Z,27.23
2022-12-13T18:56:17.907Z,29.08
2022-12-13T18:58:46.488Z,30.25
2022-12-13T19:01:14.279Z,29.13
2022-12-13T19:03:43.826Z,29.98
2022-12-13T19:06:24.143Z,31.38
2022-12-13T19:08:53.167Z,27.17
2022-12-13T19:11:20.485Z,31.45
2022-12-13T19:13:47.547Z,30.05
2022-12-13T19:16:16.557Z,31.35
2022-12-13T19:18:43.656Z,29.25
2022-12-13T19:21:14.918Z,30.35
2022-12-13T19:23:42.502Z,30.40
2022-12-13T19:26:14.114Z,32.03
2022-12-13T19:28:42.595Z,30.70
2022-12-13T19:31:11.652Z,32.25
2022-12-13T19:36:13.072Z,26.00
2022-12-13T19:38:40.808Z,26.73
2022-12-13T19:41:14.417Z,27.88
2022-12-13T19:43:41.911Z,30.80
2022-12-13T19:46:10.092Z,31.00
2022-12-13T19:48:40.079Z,31.15
2022-12-13T19:51:08.960Z,32.00
2022-12-13T19:53:37.652Z,29.70
2022-12-13T19:56:12.274Z,32.33
2022-12-13T19:58:40.091Z,30.90
2022-12-13T20:01:08.181Z,33.97
2022-12-13T20:03:40.213Z,31.92
2022-12-13T20:06:09.082Z,31.95
2022-12-13T20:08:36.003Z,33.80
2022-12-13T20:11:11.441Z,31.50
2022-12-13T20:13:38.014Z,31.27
2022-12-13T20:16:05.497Z,30.80
2022-12-13T20:18:33.417Z,30.88
2022-12-13T20:21:13.777Z,29.77
2022-12-13T20:23:49.454Z,28.63
2022-12-13T20:26:21.656Z,28.67
2022-12-13T20:28:49.815Z,28.83
2022-12-13T20:31:22.542Z,29.60
2022-12-13T20:33:53.316Z,29.50
2022-12-13T20:36:25.304Z,31.80
2022-12-13T20:38:55.246Z,31.30
2022-12-13T20:43:51.844Z,30.30
2022-12-13T20:46:18.732Z,32.00
2022-12-13T20:48:46.740Z,31.95
2022-12-13T20:51:15.909Z,31.83
2022-12-13T20:56:12.772Z,30.75
2022-12-13T20:58:40.472Z,30.98
2022-12-13T21:01:08.195Z,32.28
2022-12-13T21:03:35.112Z,30.20
2022-12-13T21:06:01.727Z,30.23
2022-12-13T21:08:46.893Z,29.73
2022-12-13T21:11:26.036Z,29.67
2022-12-13T21:14:09.181Z,28.48
2022-12-13T21:16:44.240Z,38.13
2022-12-13T21:19:14.368Z,33.10
2022-12-13T21:21:40.985Z,29.02
2022-12-13T21:24:08.339Z,30.52
2022-12-13T21:26:36.415Z,30.38
2022-12-13T21:29:06.817Z,22.83
2022-12-13T21:31:35.414Z,32.10
2022-12-13T21:34:02.752Z,33.83
2022-12-13T21:36:32.108Z,31.65
2022-12-13T21:39:01.484Z,31.67
2022-12-13T21:41:28.934Z,32.65
2022-12-13T21:43:56.089Z,33.20
2022-12-13T21:46:31.299Z,31.35
2022-12-13T21:49:12.140Z,32.20
2022-12-13T21:51:44.611Z,30.90
2022-12-13T21:54:14.383Z,30.38
2022-12-13T21:57:01.748Z,28.80
2022-12-13T21:59:28.960Z,28.50
2022-12-13T22:02:16.853Z,26.05
2022-12-13T22:04:51.227Z,27.40
2022-12-13T22:07:19.085Z,25.50
2022-12-13T22:09:46.603Z,25.92
2022-12-13T22:12:40.847Z,27.17
2022-12-13T22:15:10.453Z,25.75
2022-12-13T22:17:37.867Z,27.52
2022-12-13T22:20:22.460Z,28.70
2022-12-13T22:22:49.107Z,26.80
2022-12-13T22:25:15.829Z,26.05
2022-12-13T22:27:42.485Z,26.85
2022-12-13T22:30:10.504Z,27.65
2022-12-13T22:32:37.219Z,25.75
2022-12-13T22:35:04.864Z,25.98
2022-12-13T22:37:32.235Z,25.35
2022-12-13T22:39:58.911Z,25.65
2022-12-13T22:42:25.652Z,25.60
2022-12-13T22:44:52.327Z,24.33
2022-12-13T22:47:18.983Z,27.48
2022-12-13T22:49:49.055Z,27.70
2022-12-13T22:52:16.094Z,25.77
2022-12-13T22:54:42.752Z,27.73
2022-12-13T22:57:09.454Z,27.77
2022-12-13T22:59:36.131Z,25.90
2022-12-13T23:02:04.031Z,26.60
2022-12-13T23:04:31.978Z,27.08
2022-12-13T23:06:58.912Z,28.17
2022-12-13T23:09:25.573Z,27.90
2022-12-13T23:12:10.700Z,26.30
2022-12-13T23:14:37.335Z,24.45
2022-12-13T23:17:04.441Z,26.10
2022-12-13T23:19:49.724Z,24.95
2022-12-13T23:22:18.160Z,26.45
2022-12-13T23:24:44.825Z,26.50
2022-12-13T23:27:11.533Z,26.35
2022-12-13T23:29:38.406Z,27.10
2022-12-13T23:32:05.130Z,26.17
2022-12-13T23:34:31.877Z,24.80
2022-12-13T23:36:58.510Z,24.90
2022-12-13T23:39:25.335Z,25.40
2022-12-13T23:41:52.103Z,25.25
2022-12-13T23:44:18.797Z,23.40
2022-12-13T23:46:48.539Z,25.48
2022-12-13T23:49:16.521Z,28.20
2022-12-13T23:51:43.551Z,27.33
2022-12-13T23:54:16.392Z,27.85
2022-12-13T23:56:43.654Z,26.65
2022-12-13T23:59:10.513Z,26.58
